• Join FlightAware (Why Join?)
  • Login
  • US Flag 
05:48AM EDT


 

Airport Tracker/Info


-or-


 

Live Flight TrackerFlight Track Log ✈ AAL2345 ✈ 11-Jun-2013 ✈ KORD - KDFW

Flight Track Log - Related Links

Times and Time Zones

All times are in EDT time to prevent confusion due to time zone crossing. See the AAL2345 flight status page for this flight to view local times or setup timezone preferences in your user account.

Time Position Orientation Groundspeed Altitude Reporting Facility
EDT Latitude Longitude Course Direction KTS MPH feet Rate Location/Type
07:06PM 41.9333 -87.9167 207° Southwest 175 201 2,000  Level Chicago TRACON
07:07PM 41.9000 -87.9500 217° Southwest 195 224 3,800 1,500 Climbing Chicago TRACON
07:08PM 41.8333 -87.9833 200° South 258 297 5,000 960 Climbing Chicago TRACON
07:09PM 41.7424 -88.1897 201° Southwest  Level Estimated
07:09PM 41.8256 -87.9889 208° Southwest 232 267 5,100  Level Chicago Center
07:10PM 41.6625 -88.2835 197° South  Level Estimated
07:10PM 41.7386 -88.0328 201° Southwest 277 319 8,200  Level Chicago Center
07:11PM 41.5651 -88.2266 156° South  Level FlightAware Approximate
07:11PM 41.6589 -88.0653 197° South 297 342 11,100  Level Chicago Center
07:12PM 41.4857 -88.3211 207° Southwest  Level Estimated
07:12PM 41.5778 -88.1019 199° South 309 356 13,200  Level Chicago Center
07:13PM 41.4922 -88.1408 199° South 329 379 15,300 2,400 Climbing Chicago Center
07:14PM 41.3881 -88.1886 199° South 342 394 18,200 2,160 Climbing Chicago Center
07:15PM 41.3000 -88.2306 200° South 345 397 19,900 1,200 Climbing Chicago Center
07:16PM 41.2019 -88.2717 198° South 370 426 20,800 840 Climbing Chicago Center
07:17PM 41.0953 -88.3197 199° South 400 460 21,700 1,320 Climbing Chicago Center
07:18PM 40.9594 -88.3811 199° South 430 495 23,600 1,500 Climbing Chicago Center
07:19PM 40.8419 -88.4328 198° South 444 511 24,900 1,320 Climbing Chicago Center
07:20PM 40.7400 -88.5225 214° Southwest 447 514 26,400 1,200 Climbing Chicago Center
07:21PM 40.6456 -88.6272 220° Southwest 448 516 27,400 1,140 Climbing Chicago Center
07:22PM 40.5469 -88.7383 221° Southwest 466 536 28,800 1,740 Climbing Chicago Center
07:23PM 40.4400 -88.8578 220° Southwest 459 528 31,000 1,800 Climbing Chicago Center
07:24PM 40.3483 -88.9625 221° Southwest 441 507 32,600 1,260 Climbing Chicago Center
07:25PM 40.2578 -89.0633 220° Southwest 429 494 33,700 660 Climbing Chicago Center
07:26PM 40.1694 -89.1628 221° Southwest 421 484 34,000 120 Climbing Chicago Center
07:27PM 40.0786 -89.2650 221° Southwest 422 486 34,000  Level Kansas City Center
07:28PM 39.9689 -89.3853 220° Southwest 428 493 34,000  Level Chicago Center
07:29PM 39.8783 -89.4878 221° Southwest 430 495 34,000  Level Chicago Center
07:30PM 39.7858 -89.5897 220° Southwest 436 502 34,000  Level Chicago Center
07:31PM 39.7106 -89.6719 220° Southwest 429 494 34,000  Level Kansas City Center
07:32PM 39.6008 -89.7908 220° Southwest 430 495 34,000  Level Kansas City Center
07:34PM 39.5092 -89.8917 220° Southwest 432 497 34,000  Level Kansas City Center
07:35PM 39.4164 -89.9936 220° Southwest 436 502 34,000  Level Kansas City Center
07:36PM 39.3239 -90.0936 220° Southwest 436 502 34,000  Level Kansas City Center
07:37PM 39.2300 -90.1939 220° Southwest 439 505 34,000  Level Kansas City Center
07:38PM 39.1383 -90.2947 220° Southwest 437 503 34,000  Level Kansas City Center
07:39PM 39.0275 -90.4150 220° Southwest 437 503 34,000  Level Kansas City Center
07:40PM 38.9319 -90.5125 218° Southwest 436 502 34,000  Level Kansas City Center
07:41PM 38.8386 -90.6133 220° Southwest 435 501 34,000  Level Kansas City Center
07:42PM 38.7444 -90.7136 220° Southwest 454 522 34,000  Level Kansas City Center
07:43PM 38.6328 -90.8311 219° Southwest 441 507 34,000  Level Kansas City Center
07:44PM 38.5397 -90.9297 220° Southwest 438 504 34,000  Level Kansas City Center
07:45PM 38.4464 -91.0261 219° Southwest 435 501 34,000  Level Kansas City Center
07:46PM 38.3525 -91.1233 219° Southwest 436 502 34,000  Level Kansas City Center
07:47PM 38.2594 -91.2194 219° Southwest 435 501 34,000  Level Kansas City Center
07:48PM 38.1578 -91.3244 219° Southwest 433 498 34,000  Level Kansas City Center
07:49PM 38.0633 -91.4219 219° Southwest 434 499 34,000  Level Kansas City Center
07:50PM 37.9683 -91.5194 219° Southwest 436 502 34,000  Level Kansas City Center
07:51PM 37.8739 -91.6158 219° Southwest 433 498 34,000  Level Kansas City Center
07:52PM 37.7614 -91.7317 219° Southwest 432 497 34,000  Level Kansas City Center
07:53PM 37.6678 -91.8281 219° Southwest 430 495 34,000  Level Kansas City Center
07:54PM 37.5731 -91.9256 219° Southwest 434 499 34,000  Level Kansas City Center
07:55PM 37.4786 -92.0217 219° Southwest 433 498 34,000  Level Kansas City Center
07:56PM 37.3883 -92.1231 222° Southwest 432 497 34,000  Level Kansas City Center
07:57PM 37.2992 -92.2239 222° Southwest 429 494 34,000  Level Kansas City Center
07:58PM 37.2081 -92.3242 221° Southwest 430 495 34,000  Level Kansas City Center
08:00PM 37.0294 -92.5211 221° Southwest 426 490 34,000  Level Kansas City Center
08:01PM 36.9211 -92.6392 221° Southwest 427 491 34,000  Level Kansas City Center
08:02PM 36.8308 -92.7372 221° Southwest 428 493 34,000  Level Kansas City Center
08:03PM 36.7389 -92.8375 221° Southwest 434 499 34,000  Level Kansas City Center
08:04PM 36.6478 -92.9350 221° Southwest 432 497 34,000  Level Kansas City Center
08:05PM 36.5508 -93.0389 221° Southwest 433 498 34,000  Level Kansas City Center
08:06PM 36.4583 -93.1378 221° Southwest 437 503 34,000  Level Kansas City Center
08:08PM 36.3675 -93.2372 221° Southwest 438 504 34,000  Level Kansas City Center
08:08PM 36.2903 -93.3231 222° Southwest 439 505 34,000  Level Memphis Center
08:09PM 36.1961 -93.4200 220° Southwest 439 505 34,000  Level Memphis Center
08:10PM 36.1039 -93.5194 221° Southwest 439 505 34,000  Level Memphis Center
08:11PM 36.0139 -93.6186 222° Southwest 439 505 34,000  Level Memphis Center
08:12PM 35.9175 -93.7172 220° Southwest 444 511 34,000  Level Memphis Center
08:13PM 35.8228 -93.8183 221° Southwest 449 517 34,000  Level Memphis Center
08:14PM 35.7306 -93.9142 220° Southwest 449 517 34,000  Level Memphis Center
08:15PM 35.6358 -94.0125 220° Southwest 449 517 34,000  Level Memphis Center
08:16PM 35.5433 -94.1103 221° Southwest 449 517 34,000  Level Memphis Center
08:17PM 35.4486 -94.2106 221° Southwest 449 517 34,000  Level Memphis Center
08:18PM 35.3539 -94.3056 219° Southwest 449 517 34,000  Level Memphis Center
08:19PM 35.2608 -94.4106 223° Southwest 449 517 34,000  Level Memphis Center
08:20PM 35.1678 -94.5075 220° Southwest 449 517 34,000  Level Memphis Center
08:22PM 35.0419 -94.6469 222° Southwest 438 504 34,000  Level Fort Worth Center
08:23PM 34.9483 -94.7514 222° Southwest 443 510 34,000 -360 Level Fort Worth Center
08:25PM 34.7932 -94.9070 220° Southwest  Level FlightAware Approximate
08:26PM 34.6625 -95.0581 220° Southwest 449 517 32,700  Level Fort Worth Center
08:27PM 34.5664 -95.1592 221° Southwest 455 524 31,700 -1,020 Descending Fort Worth Center
08:29PM 34.3819 -95.3578 222° Southwest 450 518 29,700 -1,020 Descending Fort Worth Center
08:30PM 34.2894 -95.4528 220° Southwest 455 524 28,700 -1,200 Descending Fort Worth Center
08:31PM 34.1992 -95.5478 221° Southwest 449 517 27,400 -1,500 Descending Fort Worth Center
08:32PM 34.1089 -95.6450 222° Southwest 449 517 25,800 -1,680 Descending Fort Worth Center
08:33PM 34.0222 -95.7294 219° Southwest 425 489 24,100 -1,800 Descending Fort Worth Center
08:34PM 33.9358 -95.8214 221° Southwest 425 489 22,200 -2,040 Descending Fort Worth Center
08:35PM 33.8472 -95.9128 221° Southwest 425 489 20,100 -2,100 Descending Fort Worth Center
08:36PM 33.7647 -96.0019 222° Southwest 420 483 18,000 -1,920 Descending Fort Worth Center
08:37PM 33.6947 -96.0728 220° Southwest 391 450 16,300 -1,800 Descending Fort Worth Center
08:38PM 33.6078 -96.1639 221° Southwest 377 434 14,500 -1,620 Descending Fort Worth Center
08:39PM 33.5417 -96.2322 221° Southwest 363 418 13,100 -1,500 Descending Fort Worth Center
08:40PM 33.4653 -96.3228 225° Southwest 353 406 11,500 -1,080 Descending Fort Worth Center
08:41PM 33.4117 -96.3881 225° Southwest 328 377 11,000 -1,080 Descending Fort Worth Center
08:42PM 33.3475 -96.4636 225° Southwest 299 344 9,400 -1,500 Descending Fort Worth Center
08:43PM 33.3061 -96.5311 234° Southwest 294 338 8,100 -1,320 Descending Fort Worth Center
08:44PM 33.2650 -96.6061 237° Southwest 283 326 6,800 -1,200 Descending Fort Worth Center
08:45PM 33.2236 -96.6883 239° Southwest 272 313 5,700 -840 Descending Fort Worth Center
08:46PM 33.1886 -96.7531 237° Southwest 272 313 5,200 -360 Descending Fort Worth Center
08:47PM 33.1453 -96.8353 238° Southwest 272 313 5,000 -300 Descending Fort Worth Center
08:47PM 33.1167 -96.8667 223° Southwest 262 302 4,800 -600 Descending Dallas / Fort Worth TRACON
08:48PM 33.0833 -96.9500 244° Southwest 252 290 4,100 -780 Descending Dallas / Fort Worth TRACON
08:49PM 33.0500 -97.0000 232° Southwest 201 231 3,300 -840 Descending Dallas / Fort Worth TRACON
08:50PM 33.0000 -97.0167 196° South 161 185 2,500 -840 Descending Dallas / Fort Worth TRACON